Time;durP1;ratioP1;P1;durP2;ratioP2;P2;SDS_P1;SDS_P2;PMS_P1;PMS_P2;Temp;Humidity;BMP_temperature;BMP_pressure;BME280_temperature;BME280_humidity;BME280_pressure;Samples;Min_cycle;Max_cycle;Signal;HPM_P1;HPM_P2
2023/03/13 00:00:29;;;;;;;8.82;3.03;;;;;;;;;;4994998;28;20132;-61
2023/03/13 00:02:55;;;;;;;5.82;2.28;;;;;;;;;;4994942;28;20054;-58
2023/03/13 00:05:22;;;;;;;10.10;2.47;;;;;;;;;;4994666;28;20058;-58
2023/03/13 00:07:49;;;;;;;6.00;2.90;;;;;;;;;;4994598;28;20101;-55
2023/03/13 00:10:16;;;;;;;5.72;2.25;;;;;;;;;;4994882;28;20058;-59
2023/03/13 00:12:44;;;;;;;5.28;2.53;;;;;;;;;;4994669;28;20491;-58
2023/03/13 00:15:11;;;;;;;6.22;2.40;;;;;;;;;;4994577;28;20455;-58
2023/03/13 00:17:38;;;;;;;4.15;2.08;;;;;;;;;;4994320;28;20050;-59
2023/03/13 00:20:07;;;;;;;6.72;2.17;;;;;;;;;;4993716;28;20122;-58
2023/03/13 00:22:34;;;;;;;6.30;1.92;;;;;;;;;;4994275;28;20054;-58
2023/03/13 00:25:01;;;;;;;4.75;1.80;;;;;;;;;;4994594;28;20050;-60
2023/03/13 00:27:32;;;;;;;4.97;2.45;;;;;;;;;;4994219;28;20054;-58
2023/03/13 00:30:00;;;;;;;6.53;2.70;;;;;;;;;;4994340;28;20061;-60
2023/03/13 00:32:27;;;;;;;7.50;2.72;;;;;;;;;;4994439;28;20418;-60
2023/03/13 00:34:54;;;;;;;6.07;2.70;;;;;;;;;;4994329;28;20054;-58
2023/03/13 00:37:20;;;;;;;5.10;2.25;;;;;;;;;;4994183;28;20057;-59
2023/03/13 00:39:47;;;;;;;6.13;2.00;;;;;;;;;;4994100;28;20117;-61
2023/03/13 00:42:14;;;;;;;6.00;2.30;;;;;;;;;;4993960;28;20054;-59
2023/03/13 00:44:41;;;;;;;4.13;2.17;;;;;;;;;;4994144;28;20495;-59
2023/03/13 00:47:09;;;;;;;5.72;1.98;;;;;;;;;;4993797;28;20054;-58
2023/03/13 00:49:36;;;;;;;5.05;2.10;;;;;;;;;;4993856;28;20050;-58
2023/03/13 00:52:03;;;;;;;5.40;1.98;;;;;;;;;;4994132;28;20479;-60
2023/03/13 00:54:31;;;;;;;3.70;1.67;;;;;;;;;;4993834;28;20077;-60
2023/03/13 00:56:58;;;;;;;5.30;1.98;;;;;;;;;;4993557;28;20062;-59
2023/03/13 00:59:25;;;;;;;4.55;1.83;;;;;;;;;;4993395;28;20108;-60
2023/03/13 01:01:52;;;;;;;3.30;1.88;;;;;;;;;;4993847;28;20046;-56
2023/03/13 01:04:20;;;;;;;3.05;1.40;;;;;;;;;;4993712;28;20065;-57
2023/03/13 01:06:47;;;;;;;3.85;1.77;;;;;;;;;;4983345;28;20063;-59
2023/03/13 01:09:15;;;;;;;4.47;1.58;;;;;;;;;;4973956;28;20047;-59
2023/03/13 01:11:44;;;;;;;4.10;1.60;;;;;;;;;;4974093;28;20508;-59
2023/03/13 01:14:13;;;;;;;5.22;1.85;;;;;;;;;;4975040;28;20085;-59
2023/03/13 01:16:41;;;;;;;3.97;1.92;;;;;;;;;;4993405;28;20108;-58
2023/03/13 01:19:09;;;;;;;4.30;1.80;;;;;;;;;;4993329;28;20108;-57
2023/03/13 01:21:38;;;;;;;5.93;1.83;;;;;;;;;;4993242;28;20058;-57
2023/03/13 01:24:05;;;;;;;3.95;1.70;;;;;;;;;;4993146;28;20499;-57
2023/03/13 01:26:32;;;;;;;3.45;1.55;;;;;;;;;;4993186;28;20487;-59
2023/03/13 01:28:59;;;;;;;3.70;1.55;;;;;;;;;;4992966;28;20457;-58
2023/03/13 01:31:27;;;;;;;4.43;1.85;;;;;;;;;;4993019;28;20046;-58
2023/03/13 01:33:56;;;;;;;4.35;1.52;;;;;;;;;;4992516;28;20053;-59
2023/03/13 01:36:24;;;;;;;5.60;1.77;;;;;;;;;;4992956;28;20054;-58
2023/03/13 01:38:54;;;;;;;3.95;1.63;;;;;;;;;;4992945;28;20049;-59
2023/03/13 01:41:22;;;;;;;5.53;1.73;;;;;;;;;;4992991;28;20486;-59
2023/03/13 01:43:49;;;;;;;3.47;1.52;;;;;;;;;;4992859;28;20284;-59
2023/03/13 01:46:17;;;;;;;4.38;1.58;;;;;;;;;;4992768;28;20046;-59
2023/03/13 01:48:49;;;;;;;2.55;1.27;;;;;;;;;;4993078;28;20042;-57
2023/03/13 01:51:21;;;;;;;3.45;1.40;;;;;;;;;;4992725;28;20054;-59
2023/03/13 01:53:51;;;;;;;4.15;1.55;;;;;;;;;;4992796;28;20056;-58
2023/03/13 01:56:24;;;;;;;3.53;1.33;;;;;;;;;;4992832;28;20097;-59
2023/03/13 01:58:52;;;;;;;3.38;1.50;;;;;;;;;;4992721;28;20093;-59
2023/03/13 02:01:20;;;;;;;3.53;1.55;;;;;;;;;;4992724;28;20462;-59
2023/03/13 02:03:48;;;;;;;3.63;1.40;;;;;;;;;;4992729;28;20511;-59
2023/03/13 02:06:16;;;;;;;8.35;1.77;;;;;;;;;;4986847;28;20050;-59
2023/03/13 02:08:50;;;;;;;3.58;1.70;;;;;;;;;;4972970;28;20636;-59
2023/03/13 02:11:27;;;;;;;3.65;1.80;;;;;;;;;;4973308;28;20121;-58
2023/03/13 02:13:56;;;;;;;2.78;1.58;;;;;;;;;;4973281;28;20444;-59
2023/03/13 02:16:23;;;;;;;3.13;1.25;;;;;;;;;;4973390;28;20417;-58
2023/03/13 02:18:50;;;;;;;2.30;1.20;;;;;;;;;;4973102;28;20058;-58
2023/03/13 02:21:37;;;;;;;2.58;1.30;;;;;;;;;;4973229;28;20054;-57
2023/03/13 02:24:13;;;;;;;3.17;1.40;;;;;;;;;;4978301;28;20053;-58
2023/03/13 02:26:41;;;;;;;3.25;1.30;;;;;;;;;;4992650;28;20459;-58
2023/03/13 02:29:16;;;;;;;5.18;1.48;;;;;;;;;;4992209;28;20054;-57
2023/03/13 02:31:44;;;;;;;3.17;1.38;;;;;;;;;;4992750;28;20499;-56
2023/03/13 02:34:13;;;;;;;4.53;1.40;;;;;;;;;;4992574;28;20046;-58
2023/03/13 02:36:41;;;;;;;3.38;1.20;;;;;;;;;;4992431;28;20116;-58
2023/03/13 02:39:09;;;;;;;2.65;1.10;;;;;;;;;;4992237;28;20054;-56
2023/03/13 02:41:36;;;;;;;4.30;1.25;;;;;;;;;;4992637;28;20050;-59
2023/03/13 02:44:04;;;;;;;3.17;1.40;;;;;;;;;;4993280;28;20050;-59
2023/03/13 02:46:31;;;;;;;3.88;1.20;;;;;;;;;;4996312;28;20054;-59
2023/03/13 02:48:59;;;;;;;2.53;1.38;;;;;;;;;;4996011;28;20145;-57
2023/03/13 02:51:29;;;;;;;2.88;1.42;;;;;;;;;;4995989;28;20133;-59
2023/03/13 02:53:59;;;;;;;3.97;1.52;;;;;;;;;;4995870;28;20061;-59
2023/03/13 02:56:27;;;;;;;4.72;1.55;;;;;;;;;;4996050;28;20054;-58
2023/03/13 02:58:57;;;;;;;4.32;1.30;;;;;;;;;;4995775;28;20108;-59
2023/03/13 03:01:25;;;;;;;4.18;1.30;;;;;;;;;;4995881;28;20112;-58
2023/03/13 03:03:52;;;;;;;5.18;1.45;;;;;;;;;;4997041;28;20054;-56
2023/03/13 03:06:18;;;;;;;3.28;1.10;;;;;;;;;;5008846;28;20108;-59
2023/03/13 03:08:45;;;;;;;2.55;1.30;;;;;;;;;;4995442;28;20112;-57
2023/03/13 03:11:12;;;;;;;2.67;1.10;;;;;;;;;;4995595;28;20058;-58
2023/03/13 03:13:39;;;;;;;3.35;1.40;;;;;;;;;;4995645;28;20109;-58
2023/03/13 03:16:07;;;;;;;2.85;1.38;;;;;;;;;;4995618;28;20109;-59
2023/03/13 03:18:36;;;;;;;2.28;1.05;;;;;;;;;;4995766;28;20057;-59
2023/03/13 03:21:05;;;;;;;3.38;1.60;;;;;;;;;;4995434;28;20054;-59
2023/03/13 03:23:32;;;;;;;2.40;1.20;;;;;;;;;;4995633;28;20058;-59
2023/03/13 03:25:59;;;;;;;3.70;1.35;;;;;;;;;;4995594;28;20054;-55
2023/03/13 03:28:26;;;;;;;3.65;1.48;;;;;;;;;;4995339;28;20046;-57
2023/03/13 03:30:53;;;;;;;3.15;1.30;;;;;;;;;;4995404;28;20510;-57
2023/03/13 03:33:20;;;;;;;4.03;1.48;;;;;;;;;;4994187;28;20054;-59
2023/03/13 03:35:48;;;;;;;3.97;1.30;;;;;;;;;;4986366;28;20484;-59
2023/03/13 03:38:15;;;;;;;5.45;1.30;;;;;;;;;;4995093;28;20050;-59
2023/03/13 03:40:42;;;;;;;4.43;1.80;;;;;;;;;;4987979;28;20054;-58
2023/03/13 03:43:09;;;;;;;3.65;1.58;;;;;;;;;;4991588;28;20492;-59
2023/03/13 03:45:35;;;;;;;4.68;1.58;;;;;;;;;;4994937;28;20109;-59
2023/03/13 03:48:02;;;;;;;2.97;1.50;;;;;;;;;;4995060;28;20054;-59
2023/03/13 03:50:29;;;;;;;3.80;1.35;;;;;;;;;;4983639;28;20428;-58
2023/03/13 03:52:57;;;;;;;2.65;1.55;;;;;;;;;;4975457;28;20055;-59
2023/03/13 03:55:24;;;;;;;3.78;1.52;;;;;;;;;;5036242;23;20107;-76
2023/03/13 03:57:50;;;;;;;4.50;1.80;;;;;;;;;;5034305;28;20136;-77
2023/03/13 04:00:18;;;;;;;5.20;2.40;;;;;;;;;;5035499;28;20077;-77
2023/03/13 04:02:45;;;;;;;3.75;1.80;;;;;;;;;;5053623;28;20052;-77
2023/03/13 04:05:12;;;;;;;3.10;1.40;;;;;;;;;;5047048;28;20484;-77
2023/03/13 04:07:38;;;;;;;3.25;1.80;;;;;;;;;;5053794;28;20051;-75
2023/03/13 04:10:08;;;;;;;3.40;1.70;;;;;;;;;;5052508;28;20482;-77
2023/03/13 04:12:34;;;;;;;3.20;1.40;;;;;;;;;;5053689;28;20389;-76
2023/03/13 04:15:01;;;;;;;2.58;1.27;;;;;;;;;;5053790;28;20044;-76
2023/03/13 04:17:27;;;;;;;3.10;1.38;;;;;;;;;;5062986;28;20068;-77
2023/03/13 04:19:54;;;;;;;3.25;1.38;;;;;;;;;;5054049;28;20132;-77
2023/03/13 04:22:21;;;;;;;2.85;1.38;;;;;;;;;;5053477;28;20049;-75
2023/03/13 04:24:47;;;;;;;3.03;1.40;;;;;;;;;;5053351;28;20048;-75
2023/03/13 04:27:15;;;;;;;2.10;1.10;;;;;;;;;;5053322;28;20127;-75
2023/03/13 04:29:42;;;;;;;3.25;1.33;;;;;;;;;;5053290;28;20045;-75
2023/03/13 04:32:09;;;;;;;2.42;1.38;;;;;;;;;;5053232;28;20131;-76
2023/03/13 04:34:35;;;;;;;3.30;1.52;;;;;;;;;;5068671;28;20049;-76
2023/03/13 04:37:02;;;;;;;4.40;1.20;;;;;;;;;;5073248;28;20040;-77
2023/03/13 04:39:29;;;;;;;3.20;1.30;;;;;;;;;;5072539;28;20066;-76
2023/03/13 04:41:56;;;;;;;5.07;1.42;;;;;;;;;;5073141;28;20053;-76
2023/03/13 04:44:24;;;;;;;2.22;1.17;;;;;;;;;;5073043;28;20049;-76
2023/03/13 04:46:51;;;;;;;3.30;1.13;;;;;;;;;;5074042;28;20051;-76
2023/03/13 04:49:17;;;;;;;2.50;1.10;;;;;;;;;;5073809;28;20132;-76
2023/03/13 04:51:45;;;;;;;2.75;1.00;;;;;;;;;;5054134;28;20090;-76
2023/03/13 04:54:12;;;;;;;4.07;1.45;;;;;;;;;;5053037;28;20131;-76
2023/03/13 04:56:39;;;;;;;2.60;1.30;;;;;;;;;;5052996;28;20135;-76
2023/03/13 04:59:05;;;;;;;2.03;1.00;;;;;;;;;;5053227;28;20041;-76
2023/03/13 05:01:33;;;;;;;2.15;1.15;;;;;;;;;;5052784;28;20496;-76
2023/03/13 05:04:00;;;;;;;2.58;1.25;;;;;;;;;;5063193;28;20575;-76
2023/03/13 05:06:27;;;;;;;4.00;1.23;;;;;;;;;;5064032;28;20451;-77
2023/03/13 05:08:54;;;;;;;4.03;1.27;;;;;;;;;;5052701;28;20056;-76
2023/03/13 05:11:20;;;;;;;3.45;1.30;;;;;;;;;;5052597;28;20047;-76
2023/03/13 05:13:47;;;;;;;3.00;1.52;;;;;;;;;;5052488;28;20045;-76
2023/03/13 05:16:14;;;;;;;2.00;0.93;;;;;;;;;;5052019;28;20580;-76
2023/03/13 05:18:42;;;;;;;2.17;1.05;;;;;;;;;;5052534;28;20055;-76
2023/03/13 05:21:08;;;;;;;1.45;0.90;;;;;;;;;;5067588;28;20055;-76
2023/03/13 05:23:35;;;;;;;3.00;1.00;;;;;;;;;;5072898;28;20127;-76
2023/03/13 05:26:02;;;;;;;4.53;1.40;;;;;;;;;;5073051;28;20050;-77
2023/03/13 05:28:28;;;;;;;3.30;1.10;;;;;;;;;;5073989;28;20418;-77
2023/03/13 05:30:55;;;;;;;2.95;1.30;;;;;;;;;;5074122;28;20052;-77
2023/03/13 05:33:22;;;;;;;3.00;1.00;;;;;;;;;;5072855;28;20539;-77
2023/03/13 05:35:50;;;;;;;3.22;1.17;;;;;;;;;;5074339;28;20128;-77
2023/03/13 05:38:17;;;;;;;4.97;1.42;;;;;;;;;;5073913;28;20055;-76
2023/03/13 05:40:43;;;;;;;2.90;1.20;;;;;;;;;;5074136;28;20052;-77
2023/03/13 05:43:10;;;;;;;5.93;1.30;;;;;;;;;;5072978;28;20211;-76
2023/03/13 05:45:36;;;;;;;3.33;1.25;;;;;;;;;;5071974;28;20040;-77
2023/03/13 05:48:03;;;;;;;4.78;1.38;;;;;;;;;;5073012;28;20131;-77
2023/03/13 05:50:30;;;;;;;5.05;1.30;;;;;;;;;;5073097;28;20091;-76
2023/03/13 05:52:58;;;;;;;3.65;1.25;;;;;;;;;;5063897;28;20120;-76
2023/03/13 05:55:24;;;;;;;4.35;1.60;;;;;;;;;;5073233;28;20049;-77
2023/03/13 05:57:51;;;;;;;7.10;1.50;;;;;;;;;;5074315;28;20068;-77
2023/03/13 06:00:19;;;;;;;3.22;1.23;;;;;;;;;;5076365;28;20136;-77
2023/03/13 06:02:45;;;;;;;2.88;1.30;;;;;;;;;;5067028;28;20518;-77
2023/03/13 06:05:12;;;;;;;3.95;1.45;;;;;;;;;;5065553;28;20069;-77
2023/03/13 06:07:38;;;;;;;2.83;1.20;;;;;;;;;;5053943;28;20055;-77
2023/03/13 06:10:07;;;;;;;2.95;1.20;;;;;;;;;;5053267;28;20489;-77
2023/03/13 06:12:34;;;;;;;5.18;1.50;;;;;;;;;;5054222;28;20041;-76
2023/03/13 06:15:01;;;;;;;3.22;1.27;;;;;;;;;;5057233;28;20087;-77
2023/03/13 06:17:28;;;;;;;2.72;1.20;;;;;;;;;;5051596;28;20136;-77
2023/03/13 06:19:54;;;;;;;4.90;1.45;;;;;;;;;;5055171;28;20072;-77
2023/03/13 06:22:21;;;;;;;3.00;1.38;;;;;;;;;;5056098;28;20559;-77
2023/03/13 06:24:48;;;;;;;3.63;1.33;;;;;;;;;;5074043;28;20125;-77
2023/03/13 06:27:16;;;;;;;7.78;1.60;;;;;;;;;;5076719;28;20044;-78
2023/03/13 06:29:43;;;;;;;3.63;1.95;;;;;;;;;;5076280;28;20047;-77
2023/03/13 06:32:10;;;;;;;4.30;1.65;;;;;;;;;;5075650;28;20040;-77
2023/03/13 06:34:36;;;;;;;4.10;1.33;;;;;;;;;;5067258;28;20131;-76
2023/03/13 06:37:03;;;;;;;3.58;1.70;;;;;;;;;;5055647;28;20051;-77
2023/03/13 06:39:30;;;;;;;5.28;2.05;;;;;;;;;;5055373;28;20133;-77
2023/03/13 06:41:57;;;;;;;4.97;2.38;;;;;;;;;;5055400;28;20551;-76
2023/03/13 06:44:25;;;;;;;4.70;2.38;;;;;;;;;;5057633;28;20049;-77
2023/03/13 06:46:52;;;;;;;5.55;1.92;;;;;;;;;;5075106;28;20045;-77
2023/03/13 06:49:18;;;;;;;6.18;2.42;;;;;;;;;;5075123;28;20048;-77
2023/03/13 06:51:45;;;;;;;6.13;2.30;;;;;;;;;;5074980;28;20132;-77
2023/03/13 06:54:12;;;;;;;4.72;1.98;;;;;;;;;;5069683;28;20098;-76
2023/03/13 06:56:38;;;;;;;4.78;2.03;;;;;;;;;;5072103;28;20048;-77
2023/03/13 06:59:05;;;;;;;7.10;2.45;;;;;;;;;;5075024;28;20517;-78
2023/03/13 07:01:33;;;;;;;4.15;2.38;;;;;;;;;;5064173;28;20072;-76
2023/03/13 07:03:59;;;;;;;7.65;2.83;;;;;;;;;;5067214;28;20051;-75
2023/03/13 07:06:26;;;;;;;8.75;2.45;;;;;;;;;;5063110;28;20036;-76
2023/03/13 07:08:53;;;;;;;5.80;2.25;;;;;;;;;;5057990;28;20049;-76
2023/03/13 07:11:20;;;;;;;7.35;3.00;;;;;;;;;;5059524;28;20055;-76
2023/03/13 07:13:46;;;;;;;5.60;2.22;;;;;;;;;;5062566;28;20207;-76
2023/03/13 07:16:13;;;;;;;6.35;2.38;;;;;;;;;;5068352;28;20051;-77
2023/03/13 07:18:43;;;;;;;6.30;2.45;;;;;;;;;;5083045;28;20511;-77
2023/03/13 07:21:10;;;;;;;6.38;2.80;;;;;;;;;;5080477;28;20060;-77
2023/03/13 07:23:38;;;;;;;5.95;2.67;;;;;;;;;;5079112;28;20045;-77
2023/03/13 07:26:06;;;;;;;4.93;2.03;;;;;;;;;;5066758;28;20515;-76
2023/03/13 07:28:33;;;;;;;9.35;2.88;;;;;;;;;;5074206;28;20040;-77
2023/03/13 07:31:08;;;;;;;4.78;1.95;;;;;;;;;;5067006;28;20045;-77
2023/03/13 07:33:35;;;;;;;5.68;2.00;;;;;;;;;;5054440;28;20055;-76
2023/03/13 07:36:03;;;;;;;7.95;2.75;;;;;;;;;;5060968;28;20469;-77
2023/03/13 07:38:30;;;;;;;7.45;1.98;;;;;;;;;;5056816;28;20067;-77
2023/03/13 07:40:57;;;;;;;6.43;2.10;;;;;;;;;;5056906;28;20041;-76
2023/03/13 07:43:25;;;;;;;4.90;2.22;;;;;;;;;;5055070;28;20049;-77
2023/03/13 07:45:54;;;;;;;7.00;1.92;;;;;;;;;;5057781;28;20045;-77
2023/03/13 07:48:22;;;;;;;5.70;1.88;;;;;;;;;;5061645;28;20491;-78
2023/03/13 07:50:49;;;;;;;6.82;2.20;;;;;;;;;;5053947;28;20055;-77
2023/03/13 07:53:20;;;;;;;8.48;2.67;;;;;;;;;;5051373;28;20507;-75
2023/03/13 07:55:56;;;;;;;;;;;;;;;;;;5054258;28;20067;-77
2023/03/13 07:58:24;;;;;;;5.88;2.30;;;;;;;;;;5052685;28;20295;-77
2023/03/13 08:00:51;;;;;;;4.95;1.63;;;;;;;;;;5059423;28;20506;-77
2023/03/13 08:03:17;;;;;;;4.88;1.92;;;;;;;;;;5056168;28;20088;-77
2023/03/13 08:05:44;;;;;;;5.40;1.70;;;;;;;;;;5056785;28;20132;-77
2023/03/13 08:08:11;;;;;;;4.60;1.60;;;;;;;;;;5055327;28;20124;-78
2023/03/13 08:10:39;;;;;;;6.55;2.20;;;;;;;;;;5055378;28;20126;-77
2023/03/13 08:13:06;;;;;;;5.22;1.80;;;;;;;;;;5051504;28;20118;-76
2023/03/13 08:15:33;;;;;;;5.20;1.80;;;;;;;;;;5054513;28;20127;-77
2023/03/13 08:17:59;;;;;;;5.22;2.45;;;;;;;;;;5055648;28;20118;-78
2023/03/13 08:20:26;;;;;;;3.88;1.90;;;;;;;;;;5056248;28;20043;-77
2023/03/13 08:22:55;;;;;;;5.47;2.13;;;;;;;;;;5045981;28;20048;-80
2023/03/13 08:25:22;;;;;;;6.00;1.77;;;;;;;;;;5061593;28;20041;-79
2023/03/13 08:27:51;;;;;;;7.30;2.00;;;;;;;;;;5050054;28;20044;-78
2023/03/13 08:30:18;;;;;;;4.97;1.60;;;;;;;;;;5068191;28;20037;-77
2023/03/13 08:32:44;;;;;;;3.72;1.67;;;;;;;;;;5070419;28;20053;-78
2023/03/13 08:35:11;;;;;;;4.93;2.22;;;;;;;;;;5058454;28;20072;-79
2023/03/13 08:37:38;;;;;;;5.88;1.90;;;;;;;;;;5059386;28;20041;-79
2023/03/13 08:40:09;;;;;;;4.90;1.98;;;;;;;;;;5062479;28;20415;-75
2023/03/13 08:42:36;;;;;;;4.80;2.30;;;;;;;;;;5075103;28;20056;-75
2023/03/13 08:45:05;;;;;;;5.40;2.05;;;;;;;;;;5072481;28;20040;-83
2023/03/13 08:47:32;;;;;;;5.45;2.22;;;;;;;;;;5057260;28;20124;-78
2023/03/13 08:49:59;;;;;;;5.18;2.30;;;;;;;;;;5053422;28;20045;-79
2023/03/13 08:52:26;;;;;;;7.65;2.95;;;;;;;;;;5053544;28;20041;-75
2023/03/13 08:54:53;;;;;;;5.68;2.05;;;;;;;;;;5053129;28;20041;-77
2023/03/13 08:57:19;;;;;;;3.42;1.58;;;;;;;;;;5053546;28;20061;-77
2023/03/13 08:59:46;;;;;;;6.35;1.90;;;;;;;;;;5052583;28;20488;-79
2023/03/13 09:02:18;;;;;;;4.22;1.38;;;;;;;;;;5052122;28;20108;-79
2023/03/13 09:04:46;;;;;;;5.97;1.73;;;;;;;;;;5053548;28;20084;-79
2023/03/13 09:07:12;;;;;;;3.33;1.23;;;;;;;;;;5053514;28;20055;-78
2023/03/13 09:09:39;;;;;;;3.25;1.33;;;;;;;;;;5054421;28;20483;-78
2023/03/13 09:12:07;;;;;;;4.65;1.55;;;;;;;;;;5054792;28;20148;-79
2023/03/13 09:14:34;;;;;;;3.15;1.17;;;;;;;;;;5054362;28;20049;-78
2023/03/13 09:17:00;;;;;;;2.90;1.17;;;;;;;;;;5054254;28;20045;-79
2023/03/13 09:19:28;;;;;;;3.42;1.17;;;;;;;;;;5053966;28;20499;-79
2023/03/13 09:21:55;;;;;;;3.33;1.23;;;;;;;;;;5051882;28;20049;-79
2023/03/13 09:24:22;;;;;;;3.47;1.10;;;;;;;;;;5051789;28;20079;-78
2023/03/13 09:26:48;;;;;;;5.45;0.98;;;;;;;;;;5052156;28;20053;-79
2023/03/13 09:29:16;;;;;;;2.17;0.95;;;;;;;;;;5049484;28;20439;-77
2023/03/13 09:31:43;;;;;;;2.58;0.75;;;;;;;;;;5053496;28;20049;-79
2023/03/13 09:34:09;;;;;;;3.67;1.20;;;;;;;;;;5053437;28;20126;-78
2023/03/13 09:36:37;;;;;;;2.45;0.77;;;;;;;;;;5052433;28;20128;-77
2023/03/13 09:39:04;;;;;;;5.10;1.23;;;;;;;;;;5053080;28;20055;-77
2023/03/13 09:41:36;;;;;;;2.78;0.88;;;;;;;;;;5054836;28;20485;-78
2023/03/13 09:44:07;;;;;;;2.92;1.10;;;;;;;;;;5054194;28;20458;-78
2023/03/13 09:46:40;;;;;;;4.57;1.30;;;;;;;;;;5057484;28;20041;-78
2023/03/13 09:49:15;;;;;;;3.90;1.15;;;;;;;;;;5067856;28;20407;-77
2023/03/13 09:51:45;;;;;;;5.15;1.27;;;;;;;;;;5066325;28;20098;-76
2023/03/13 09:54:18;;;;;;;;;;;;;;;;;;5061655;28;20036;-77
2023/03/13 09:56:50;;;;;;;2.17;1.00;;;;;;;;;;5066158;28;19928;-77
2023/03/13 09:59:22;;;;;;;1.95;0.63;;;;;;;;;;5075036;28;20049;-77
2023/03/13 10:01:50;;;;;;;1.20;0.70;;;;;;;;;;5054805;28;20080;-77
2023/03/13 10:04:28;;;;;;;6.35;1.77;;;;;;;;;;5055980;28;20107;-76
2023/03/13 10:06:57;;;;;;;2.10;0.77;;;;;;;;;;5054777;28;20045;-79
2023/03/13 10:09:28;;;;;;;5.30;0.90;;;;;;;;;;5054199;28;20049;-79
2023/03/13 10:12:03;;;;;;;2.05;0.90;;;;;;;;;;5054617;28;20063;-76
2023/03/13 10:14:35;;;;;;;5.05;1.20;;;;;;;;;;5054416;28;20092;-78
2023/03/13 10:17:07;;;;;;;3.72;1.00;;;;;;;;;;5054379;28;20059;-79
2023/03/13 10:19:37;;;;;;;3.55;1.20;;;;;;;;;;5054210;28;20113;-79
2023/03/13 10:22:13;;;;;;;1.15;0.50;;;;;;;;;;5057201;28;20036;-78
2023/03/13 10:24:46;;;;;;;3.80;0.90;;;;;;;;;;5064116;28;20132;-78
2023/03/13 10:27:15;;;;;;;1.50;0.68;;;;;;;;;;5061486;28;20058;-79
2023/03/13 10:29:42;;;;;;;3.22;0.68;;;;;;;;;;5070934;28;20049;-77
2023/03/13 10:32:12;;;;;;;2.92;1.08;;;;;;;;;;5062971;28;20137;-78
2023/03/13 10:34:46;;;;;;;;;;;;;;;;;;5057550;28;20128;-78
2023/03/13 10:37:19;;;;;;;3.33;0.95;;;;;;;;;;5058134;28;20019;-76
2023/03/13 10:39:46;;;;;;;2.00;0.65;;;;;;;;;;5053480;28;20053;-78
2023/03/13 10:42:21;;;;;;;2.58;0.77;;;;;;;;;;5053211;28;20072;-80
2023/03/13 10:44:48;;;;;;;2.42;0.90;;;;;;;;;;5053212;28;20128;-79
2023/03/13 10:47:15;;;;;;;2.97;0.70;;;;;;;;;;5052969;28;20123;-79
2023/03/13 10:49:48;;;;;;;1.23;0.55;;;;;;;;;;5052804;28;20095;-78
2023/03/13 10:52:30;;;;;;;1.75;0.70;;;;;;;;;;5054796;28;20051;-75
2023/03/13 10:55:00;;;;;;;2.20;0.57;;;;;;;;;;5053638;28;20049;-78
2023/03/13 10:57:29;;;;;;;2.97;0.95;;;;;;;;;;5053131;28;20531;-78
2023/03/13 10:59:57;;;;;;;1.95;1.02;;;;;;;;;;5053075;28;20393;-79
2023/03/13 11:02:28;;;;;;;2.22;0.70;;;;;;;;;;5070335;28;20037;-76
2023/03/13 11:04:56;;;;;;;1.80;0.70;;;;;;;;;;5072180;28;20041;-76
2023/03/13 11:07:29;;;;;;;2.95;1.23;;;;;;;;;;5074615;28;20131;-77
2023/03/13 11:10:01;;;;;;;2.40;0.77;;;;;;;;;;5065287;28;20141;-79
2023/03/13 11:12:28;;;;;;;2.05;0.57;;;;;;;;;;5066880;28;20465;-77
2023/03/13 11:14:59;;;;;;;1.13;0.57;;;;;;;;;;5066147;28;20069;-77
2023/03/13 11:17:33;;;;;;;1.83;0.47;;;;;;;;;;5071595;28;20052;-77
2023/03/13 11:20:22;;;;;;;2.08;0.70;;;;;;;;;;5073734;28;20076;-76
2023/03/13 11:23:18;;;;;;;1.80;0.63;;;;;;;;;;5060240;28;20040;-79
2023/03/13 11:25:54;;;;;;;2.22;0.60;;;;;;;;;;5050797;28;20087;-78
2023/03/13 11:28:34;;;;;;;2.90;0.80;;;;;;;;;;5054025;28;20060;-78
2023/03/13 11:31:09;;;;;;;1.40;0.60;;;;;;;;;;5065169;28;20131;-79
2023/03/13 11:33:42;;;;;;;2.47;0.57;;;;;;;;;;5067283;28;20668;-76
2023/03/13 11:36:19;;;;;;;3.60;0.80;;;;;;;;;;5058373;28;20037;-79
2023/03/13 11:38:53;;;;;;;2.92;0.80;;;;;;;;;;5057134;28;20053;-78
2023/03/13 11:41:52;;;;;;;3.40;0.70;;;;;;;;;;5069789;28;20076;-80
2023/03/13 11:44:36;;;;;;;1.52;0.70;;;;;;;;;;5065810;28;20100;-80
2023/03/13 11:47:20;;;;;;;3.30;1.00;;;;;;;;;;5055007;28;20088;-78
2023/03/13 11:49:56;;;;;;;2.33;0.77;;;;;;;;;;5033740;28;20132;-79
2023/03/13 11:52:37;;;;;;;1.60;0.70;;;;;;;;;;5033153;28;20091;-77
2023/03/13 11:55:19;;;;;;;3.88;0.80;;;;;;;;;;5035351;28;20508;-81
2023/03/13 11:57:54;;;;;;;4.28;1.90;;;;;;;;;;5042197;28;20095;-77
2023/03/13 12:00:30;;;;;;;1.75;0.75;;;;;;;;;;5068917;28;20056;-78
2023/03/13 12:03:04;;;;;;;1.55;0.85;;;;;;;;;;5059577;28;20056;-79
2023/03/13 12:05:41;;;;;;;3.15;1.00;;;;;;;;;;5070187;28;20104;-78
2023/03/13 12:08:15;;;;;;;1.63;0.80;;;;;;;;;;5052357;28;20033;-78
2023/03/13 12:10:48;;;;;;;1.70;0.80;;;;;;;;;;5075784;28;20075;-80
2023/03/13 12:13:21;;;;;;;2.92;1.00;;;;;;;;;;5078159;28;20037;-78
2023/03/13 12:15:51;;;;;;;4.43;1.20;;;;;;;;;;5074870;28;20036;-79
2023/03/13 12:18:23;;;;;;;3.03;1.20;;;;;;;;;;5056137;28;20128;-78
2023/03/13 12:20:56;;;;;;;3.53;1.30;;;;;;;;;;5055914;28;20104;-78
2023/03/13 12:23:30;;;;;;;3.45;1.10;;;;;;;;;;5053955;28;20084;-77
2023/03/13 12:26:02;;;;;;;2.58;1.05;;;;;;;;;;5060462;28;20047;-77
2023/03/13 12:28:35;;;;;;;5.15;1.15;;;;;;;;;;5045011;28;20076;-77
2023/03/13 12:31:11;;;;;;;3.53;1.10;;;;;;;;;;5055130;28;20048;-78
2023/03/13 12:33:42;;;;;;;3.38;1.27;;;;;;;;;;5052912;28;20840;-79
2023/03/13 12:36:14;;;;;;;1.50;1.00;;;;;;;;;;5054268;28;20049;-77
2023/03/13 12:38:46;;;;;;;4.82;1.77;;;;;;;;;;5045903;28;20048;-77
2023/03/13 12:41:24;;;;;;;2.03;0.95;;;;;;;;;;5053403;28;20041;-79
2023/03/13 12:43:52;;;;;;;4.00;1.27;;;;;;;;;;5053514;28;20048;-79
2023/03/13 12:46:35;;;;;;;4.07;1.30;;;;;;;;;;5064349;28;20076;-77
2023/03/13 12:49:47;;;;;;;3.80;1.25;;;;;;;;;;5052666;28;20452;-77
2023/03/13 12:52:41;;;;;;;2.63;1.10;;;;;;;;;;5057714;28;20179;-76
2023/03/13 12:55:42;;;;;;;5.15;1.17;;;;;;;;;;5056645;28;20041;-79
2023/03/13 12:58:39;;;;;;;5.38;1.60;;;;;;;;;;5053689;28;20124;-77
2023/03/13 13:01:13;;;;;;;2.08;1.00;;;;;;;;;;5056990;28;20041;-78
2023/03/13 13:03:50;;;;;;;4.35;1.30;;;;;;;;;;5052297;28;20091;-78
2023/03/13 13:06:17;;;;;;;3.33;1.40;;;;;;;;;;5049104;28;20892;-77
2023/03/13 13:09:02;;;;;;;2.53;1.20;;;;;;;;;;5053812;28;20080;-78
2023/03/13 13:11:51;;;;;;;2.92;1.23;;;;;;;;;;5055220;28;20118;-78
2023/03/13 13:15:03;;;;;;;3.08;1.63;;;;;;;;;;5053005;28;20653;-78
2023/03/13 13:18:00;;;;;;;5.57;1.45;;;;;;;;;;5056561;28;20083;-78
2023/03/13 13:20:43;;;;;;;3.88;1.40;;;;;;;;;;5060280;28;20044;-78
2023/03/13 13:23:33;;;;;;;3.83;1.20;;;;;;;;;;5066004;28;20052;-78
2023/03/13 13:26:45;;;;;;;3.78;1.20;;;;;;;;;;5061959;28;20052;-78
2023/03/13 13:29:54;;;;;;;4.43;1.42;;;;;;;;;;5038101;28;20077;-79
2023/03/13 13:32:32;;;;;;;2.72;1.30;;;;;;;;;;5045743;28;20071;-76
2023/03/13 13:35:05;;;;;;;4.43;1.80;;;;;;;;;;5062019;28;20043;-78
2023/03/13 13:37:32;;;;;;;9.00;2.00;;;;;;;;;;5062787;28;20043;-78
2023/03/13 13:40:19;;;;;;;5.28;1.65;;;;;;;;;;5055725;28;20064;-78
2023/03/13 13:42:54;;;;;;;2.97;1.30;;;;;;;;;;5052300;28;20044;-78
2023/03/13 13:45:39;;;;;;;3.40;1.63;;;;;;;;;;5067937;28;20124;-78
2023/03/13 13:48:32;;;;;;;3.58;1.45;;;;;;;;;;5073481;28;20114;-78
2023/03/13 13:51:25;;;;;;;3.88;1.42;;;;;;;;;;5051724;28;20047;-78
2023/03/13 13:54:02;;;;;;;4.95;1.50;;;;;;;;;;5051889;28;20710;-77
2023/03/13 13:56:51;;;;;;;4.93;1.65;;;;;;;;;;5050729;28;20037;-77
2023/03/13 13:59:41;;;;;;;8.23;2.50;;;;;;;;;;5050871;28;20124;-78
2023/03/13 14:02:19;;;;;;;9.30;1.90;;;;;;;;;;5043894;28;20573;-78
2023/03/13 14:04:51;;;;;;;4.65;1.30;;;;;;;;;;5053787;28;20496;-78
2023/03/13 14:07:21;;;;;;;3.80;1.40;;;;;;;;;;5054094;28;20059;-79
2023/03/13 14:09:57;;;;;;;2.72;1.30;;;;;;;;;;5054102;28;20049;-79
2023/03/13 14:12:29;;;;;;;5.78;2.90;;;;;;;;;;5053941;28;20071;-80
2023/03/13 14:15:18;;;;;;;3.42;1.63;;;;;;;;;;5054174;28;20147;-79
2023/03/13 14:17:46;;;;;;;4.18;1.80;;;;;;;;;;5052658;28;20076;-78
2023/03/13 14:20:23;;;;;;;3.33;1.50;;;;;;;;;;5053186;28;20049;-78
2023/03/13 14:22:52;;;;;;;4.70;2.30;;;;;;;;;;5054737;28;20045;-78
2023/03/13 14:25:19;;;;;;;3.95;1.90;;;;;;;;;;5052884;28;20041;-78
2023/03/13 14:27:48;;;;;;;5.20;2.58;;;;;;;;;;5052786;28;20045;-77
2023/03/13 14:30:17;;;;;;;3.75;1.40;;;;;;;;;;5053989;28;20048;-78
2023/03/13 14:32:43;;;;;;;3.13;1.42;;;;;;;;;;5060374;28;20120;-76
2023/03/13 14:35:13;;;;;;;4.45;1.77;;;;;;;;;;5073712;28;20069;-75
2023/03/13 14:37:43;;;;;;;3.38;1.38;;;;;;;;;;5074710;28;20067;-76
2023/03/13 14:40:20;;;;;;;6.28;2.05;;;;;;;;;;5075175;28;20158;-77
2023/03/13 14:42:49;;;;;;;4.32;1.58;;;;;;;;;;5076262;28;20056;-75
2023/03/13 14:45:22;;;;;;;3.20;1.60;;;;;;;;;;5062532;28;20150;-79
2023/03/13 14:47:50;;;;;;;2.90;1.10;;;;;;;;;;5058529;28;20045;-79
2023/03/13 14:50:18;;;;;;;2.08;1.30;;;;;;;;;;5059589;28;20049;-81
2023/03/13 14:52:49;;;;;;;1.92;1.00;;;;;;;;;;5057540;28;20124;-79
2023/03/13 14:55:31;;;;;;;2.53;1.00;;;;;;;;;;5058192;28;20113;-79
2023/03/13 14:58:00;;;;;;;3.80;1.20;;;;;;;;;;5058779;28;20045;-79
2023/03/13 15:00:42;;;;;;;3.70;1.60;;;;;;;;;;5065521;28;20087;-78
2023/03/13 15:03:29;;;;;;;5.20;1.52;;;;;;;;;;5064349;28;20052;-78